sensor_id;sensor_type;location;lat;lon;timestamp;temperature;humidity
32366;DHT22;18837;46.832;16.838;2023-07-31T00:00:29;23.00;85.00
32366;DHT22;18837;46.832;16.838;2023-07-31T00:02:56;23.00;84.90
32366;DHT22;18837;46.832;16.838;2023-07-31T00:05:21;23.00;85.00
32366;DHT22;18837;46.832;16.838;2023-07-31T00:07:47;22.90;85.00
32366;DHT22;18837;46.832;16.838;2023-07-31T00:10:13;22.90;85.00
32366;DHT22;18837;46.832;16.838;2023-07-31T00:12:43;22.90;85.10
32366;DHT22;18837;46.832;16.838;2023-07-31T00:15:10;22.90;84.60
32366;DHT22;18837;46.832;16.838;2023-07-31T00:17:36;22.90;85.40
32366;DHT22;18837;46.832;16.838;2023-07-31T00:20:03;22.90;85.10
32366;DHT22;18837;46.832;16.838;2023-07-31T00:22:28;22.90;85.20
32366;DHT22;18837;46.832;16.838;2023-07-31T00:24:55;22.80;85.90
32366;DHT22;18837;46.832;16.838;2023-07-31T00:27:21;22.90;85.30
32366;DHT22;18837;46.832;16.838;2023-07-31T00:29:47;22.80;84.90
32366;DHT22;18837;46.832;16.838;2023-07-31T00:32:13;22.80;85.30
32366;DHT22;18837;46.832;16.838;2023-07-31T00:34:38;22.80;85.00
32366;DHT22;18837;46.832;16.838;2023-07-31T00:37:04;22.70;85.00
32366;DHT22;18837;46.832;16.838;2023-07-31T00:39:30;22.70;85.10
32366;DHT22;18837;46.832;16.838;2023-07-31T00:41:56;22.70;85.00
32366;DHT22;18837;46.832;16.838;2023-07-31T00:44:22;22.70;85.20
32366;DHT22;18837;46.832;16.838;2023-07-31T00:46:48;22.70;85.20
32366;DHT22;18837;46.832;16.838;2023-07-31T00:49:15;22.70;84.90
32366;DHT22;18837;46.832;16.838;2023-07-31T00:51:41;22.70;85.30
32366;DHT22;18837;46.832;16.838;2023-07-31T00:54:07;22.70;85.10
32366;DHT22;18837;46.832;16.838;2023-07-31T00:56:33;22.70;85.40
32366;DHT22;18837;46.832;16.838;2023-07-31T00:58:59;22.60;84.80
32366;DHT22;18837;46.832;16.838;2023-07-31T01:01:25;22.60;85.10
32366;DHT22;18837;46.832;16.838;2023-07-31T01:03:52;22.60;85.10
32366;DHT22;18837;46.832;16.838;2023-07-31T01:06:52;22.60;84.90
32366;DHT22;18837;46.832;16.838;2023-07-31T01:12:04;22.50;85.30
32366;DHT22;18837;46.832;16.838;2023-07-31T01:14:32;22.60;85.30
32366;DHT22;18837;46.832;16.838;2023-07-31T01:16:58;22.50;85.50
32366;DHT22;18837;46.832;16.838;2023-07-31T01:19:25;22.50;85.20
32366;DHT22;18837;46.832;16.838;2023-07-31T01:27:19;22.50;85.20
32366;DHT22;18837;46.832;16.838;2023-07-31T01:29:59;22.50;85.50
32366;DHT22;18837;46.832;16.838;2023-07-31T01:32:28;22.40;85.10
32366;DHT22;18837;46.832;16.838;2023-07-31T01:34:54;22.40;85.30
32366;DHT22;18837;46.832;16.838;2023-07-31T01:37:20;22.40;85.50
32366;DHT22;18837;46.832;16.838;2023-07-31T01:39:46;22.40;85.30
32366;DHT22;18837;46.832;16.838;2023-07-31T01:42:12;22.40;85.10
32366;DHT22;18837;46.832;16.838;2023-07-31T01:44:37;22.40;85.90
32366;DHT22;18837;46.832;16.838;2023-07-31T01:47:03;22.40;85.10
32366;DHT22;18837;46.832;16.838;2023-07-31T01:49:32;22.40;85.30
32366;DHT22;18837;46.832;16.838;2023-07-31T01:51:57;22.40;85.20
32366;DHT22;18837;46.832;16.838;2023-07-31T01:54:23;22.30;85.00
32366;DHT22;18837;46.832;16.838;2023-07-31T01:56:49;22.40;85.40
32366;DHT22;18837;46.832;16.838;2023-07-31T01:59:14;22.30;85.30
32366;DHT22;18837;46.832;16.838;2023-07-31T02:01:40;22.30;85.30
32366;DHT22;18837;46.832;16.838;2023-07-31T02:04:06;22.30;85.20
32366;DHT22;18837;46.832;16.838;2023-07-31T02:06:32;22.30;85.30
32366;DHT22;18837;46.832;16.838;2023-07-31T02:08:57;22.30;85.70
32366;DHT22;18837;46.832;16.838;2023-07-31T02:11:23;22.30;85.40
32366;DHT22;18837;46.832;16.838;2023-07-31T02:13:49;22.30;85.40
32366;DHT22;18837;46.832;16.838;2023-07-31T02:16:15;22.30;85.60
32366;DHT22;18837;46.832;16.838;2023-07-31T02:18:41;22.20;86.40
32366;DHT22;18837;46.832;16.838;2023-07-31T02:21:06;22.30;85.40
32366;DHT22;18837;46.832;16.838;2023-07-31T02:23:32;22.30;85.60
32366;DHT22;18837;46.832;16.838;2023-07-31T02:25:58;22.30;85.70
32366;DHT22;18837;46.832;16.838;2023-07-31T02:28:23;22.20;85.60
32366;DHT22;18837;46.832;16.838;2023-07-31T02:30:50;22.20;85.40
32366;DHT22;18837;46.832;16.838;2023-07-31T02:33:16;22.20;85.50
32366;DHT22;18837;46.832;16.838;2023-07-31T02:35:42;22.20;85.50
32366;DHT22;18837;46.832;16.838;2023-07-31T02:38:08;22.20;85.60
32366;DHT22;18837;46.832;16.838;2023-07-31T02:40:33;22.20;85.80
32366;DHT22;18837;46.832;16.838;2023-07-31T02:42:59;22.10;85.60
32366;DHT22;18837;46.832;16.838;2023-07-31T02:45:25;22.20;85.90
32366;DHT22;18837;46.832;16.838;2023-07-31T02:47:51;22.10;85.70
32366;DHT22;18837;46.832;16.838;2023-07-31T02:50:17;22.10;85.70
32366;DHT22;18837;46.832;16.838;2023-07-31T02:52:42;22.10;85.60
32366;DHT22;18837;46.832;16.838;2023-07-31T02:55:11;22.10;85.80
32366;DHT22;18837;46.832;16.838;2023-07-31T02:57:37;22.10;85.50
32366;DHT22;18837;46.832;16.838;2023-07-31T03:00:03;22.10;85.60
32366;DHT22;18837;46.832;16.838;2023-07-31T03:02:32;22.10;85.50
32366;DHT22;18837;46.832;16.838;2023-07-31T03:04:58;22.10;85.70
32366;DHT22;18837;46.832;16.838;2023-07-31T03:07:23;22.00;85.80
32366;DHT22;18837;46.832;16.838;2023-07-31T03:09:49;22.00;85.60
32366;DHT22;18837;46.832;16.838;2023-07-31T03:12:15;22.00;85.80
32366;DHT22;18837;46.832;16.838;2023-07-31T03:14:43;22.00;85.70
32366;DHT22;18837;46.832;16.838;2023-07-31T03:17:08;22.00;85.80
32366;DHT22;18837;46.832;16.838;2023-07-31T03:19:34;22.00;85.80
32366;DHT22;18837;46.832;16.838;2023-07-31T03:22:00;22.00;86.00
32366;DHT22;18837;46.832;16.838;2023-07-31T03:24:26;22.00;85.80
32366;DHT22;18837;46.832;16.838;2023-07-31T03:26:53;22.00;86.20
32366;DHT22;18837;46.832;16.838;2023-07-31T03:29:22;22.00;85.80
32366;DHT22;18837;46.832;16.838;2023-07-31T03:31:48;22.00;86.00
32366;DHT22;18837;46.832;16.838;2023-07-31T03:34:13;22.00;86.00
32366;DHT22;18837;46.832;16.838;2023-07-31T03:36:39;21.90;86.00
32366;DHT22;18837;46.832;16.838;2023-07-31T03:39:05;22.00;86.00
32366;DHT22;18837;46.832;16.838;2023-07-31T03:41:31;21.90;86.80
32366;DHT22;18837;46.832;16.838;2023-07-31T03:43:57;21.90;85.90
32366;DHT22;18837;46.832;16.838;2023-07-31T03:46:24;21.90;86.10
32366;DHT22;18837;46.832;16.838;2023-07-31T03:48:50;21.90;85.80
32366;DHT22;18837;46.832;16.838;2023-07-31T03:51:17;21.90;86.00
32366;DHT22;18837;46.832;16.838;2023-07-31T03:53:43;21.90;85.80
32366;DHT22;18837;46.832;16.838;2023-07-31T03:56:09;21.90;86.10
32366;DHT22;18837;46.832;16.838;2023-07-31T03:58:35;21.80;86.40
32366;DHT22;18837;46.832;16.838;2023-07-31T04:01:02;21.90;86.20
32366;DHT22;18837;46.832;16.838;2023-07-31T04:03:29;21.80;86.00
32366;DHT22;18837;46.832;16.838;2023-07-31T04:05:55;21.80;85.90
32366;DHT22;18837;46.832;16.838;2023-07-31T04:08:22;21.80;86.10
32366;DHT22;18837;46.832;16.838;2023-07-31T04:10:48;21.80;86.40
32366;DHT22;18837;46.832;16.838;2023-07-31T04:13:14;21.80;86.40
32366;DHT22;18837;46.832;16.838;2023-07-31T04:15:40;21.80;86.20
32366;DHT22;18837;46.832;16.838;2023-07-31T04:18:06;21.80;86.40
32366;DHT22;18837;46.832;16.838;2023-07-31T04:20:32;21.80;86.30
32366;DHT22;18837;46.832;16.838;2023-07-31T04:22:58;21.80;86.20
32366;DHT22;18837;46.832;16.838;2023-07-31T04:25:24;21.80;86.30
32366;DHT22;18837;46.832;16.838;2023-07-31T04:27:50;21.80;86.40
32366;DHT22;18837;46.832;16.838;2023-07-31T04:30:16;21.80;86.50
32366;DHT22;18837;46.832;16.838;2023-07-31T04:32:42;21.80;86.40
32366;DHT22;18837;46.832;16.838;2023-07-31T04:35:08;21.80;86.60
32366;DHT22;18837;46.832;16.838;2023-07-31T04:37:34;21.80;86.50
32366;DHT22;18837;46.832;16.838;2023-07-31T04:40:00;21.70;86.60
32366;DHT22;18837;46.832;16.838;2023-07-31T04:42:26;21.80;86.50
32366;DHT22;18837;46.832;16.838;2023-07-31T04:44:52;21.70;86.80
32366;DHT22;18837;46.832;16.838;2023-07-31T04:47:19;21.80;86.50
32366;DHT22;18837;46.832;16.838;2023-07-31T04:49:46;21.80;86.80
32366;DHT22;18837;46.832;16.838;2023-07-31T04:52:13;21.80;86.60
32366;DHT22;18837;46.832;16.838;2023-07-31T04:54:40;21.80;86.70
32366;DHT22;18837;46.832;16.838;2023-07-31T04:57:06;21.80;86.80
32366;DHT22;18837;46.832;16.838;2023-07-31T04:59:32;21.70;86.70
32366;DHT22;18837;46.832;16.838;2023-07-31T05:01:58;21.70;86.60
32366;DHT22;18837;46.832;16.838;2023-07-31T05:04:23;21.70;86.60
32366;DHT22;18837;46.832;16.838;2023-07-31T05:06:49;21.70;86.60
32366;DHT22;18837;46.832;16.838;2023-07-31T05:09:16;21.70;86.50
32366;DHT22;18837;46.832;16.838;2023-07-31T05:11:41;21.70;86.70
32366;DHT22;18837;46.832;16.838;2023-07-31T05:14:09;21.70;86.90
32366;DHT22;18837;46.832;16.838;2023-07-31T05:16:35;21.70;86.70
32366;DHT22;18837;46.832;16.838;2023-07-31T05:19:01;21.70;87.00
32366;DHT22;18837;46.832;16.838;2023-07-31T05:21:27;21.70;87.00
32366;DHT22;18837;46.832;16.838;2023-07-31T05:23:53;21.70;86.90
32366;DHT22;18837;46.832;16.838;2023-07-31T05:26:19;21.70;87.00
32366;DHT22;18837;46.832;16.838;2023-07-31T05:28:44;21.70;87.00
32366;DHT22;18837;46.832;16.838;2023-07-31T05:31:11;21.70;86.90
32366;DHT22;18837;46.832;16.838;2023-07-31T05:33:37;21.70;86.90
32366;DHT22;18837;46.832;16.838;2023-07-31T05:36:03;21.60;87.00
32366;DHT22;18837;46.832;16.838;2023-07-31T05:38:28;21.70;87.00
32366;DHT22;18837;46.832;16.838;2023-07-31T05:40:55;21.60;86.90
32366;DHT22;18837;46.832;16.838;2023-07-31T05:43:21;21.60;86.90
32366;DHT22;18837;46.832;16.838;2023-07-31T05:45:47;21.60;87.10
32366;DHT22;18837;46.832;16.838;2023-07-31T05:48:13;21.60;87.10
32366;DHT22;18837;46.832;16.838;2023-07-31T05:50:39;21.60;87.00
32366;DHT22;18837;46.832;16.838;2023-07-31T05:53:05;21.60;87.00
32366;DHT22;18837;46.832;16.838;2023-07-31T05:55:33;21.60;87.10
32366;DHT22;18837;46.832;16.838;2023-07-31T05:57:59;21.60;87.20
32366;DHT22;18837;46.832;16.838;2023-07-31T06:00:25;21.60;87.20
32366;DHT22;18837;46.832;16.838;2023-07-31T06:02:51;21.60;87.20
32366;DHT22;18837;46.832;16.838;2023-07-31T06:05:17;21.60;87.20
32366;DHT22;18837;46.832;16.838;2023-07-31T06:07:43;21.60;87.10
32366;DHT22;18837;46.832;16.838;2023-07-31T06:10:09;21.50;86.90
32366;DHT22;18837;46.832;16.838;2023-07-31T06:12:35;21.60;87.20
32366;DHT22;18837;46.832;16.838;2023-07-31T06:15:02;21.50;87.30
32366;DHT22;18837;46.832;16.838;2023-07-31T06:17:28;21.50;87.20
32366;DHT22;18837;46.832;16.838;2023-07-31T06:19:56;21.50;87.10
32366;DHT22;18837;46.832;16.838;2023-07-31T06:22:22;21.50;87.30
32366;DHT22;18837;46.832;16.838;2023-07-31T06:24:48;21.50;87.20
32366;DHT22;18837;46.832;16.838;2023-07-31T06:27:14;21.50;87.10
32366;DHT22;18837;46.832;16.838;2023-07-31T06:29:39;21.50;87.10
32366;DHT22;18837;46.832;16.838;2023-07-31T06:32:05;21.50;86.90
32366;DHT22;18837;46.832;16.838;2023-07-31T06:34:32;21.50;87.20
32366;DHT22;18837;46.832;16.838;2023-07-31T06:36:58;21.50;87.30
32366;DHT22;18837;46.832;16.838;2023-07-31T06:39:24;21.50;87.30
32366;DHT22;18837;46.832;16.838;2023-07-31T06:41:49;21.50;87.00
32366;DHT22;18837;46.832;16.838;2023-07-31T06:44:16;21.50;87.40
32366;DHT22;18837;46.832;16.838;2023-07-31T06:46:42;21.50;87.20
32366;DHT22;18837;46.832;16.838;2023-07-31T06:49:08;21.50;87.40
32366;DHT22;18837;46.832;16.838;2023-07-31T06:51:34;21.50;87.40
32366;DHT22;18837;46.832;16.838;2023-07-31T06:54:01;21.50;87.30
32366;DHT22;18837;46.832;16.838;2023-07-31T06:56:27;21.50;87.30
32366;DHT22;18837;46.832;16.838;2023-07-31T06:58:55;21.50;87.20
32366;DHT22;18837;46.832;16.838;2023-07-31T07:01:21;21.50;87.20
32366;DHT22;18837;46.832;16.838;2023-07-31T07:03:47;21.50;87.20
32366;DHT22;18837;46.832;16.838;2023-07-31T07:06:12;21.50;87.20
32366;DHT22;18837;46.832;16.838;2023-07-31T07:08:38;21.50;87.10
32366;DHT22;18837;46.832;16.838;2023-07-31T07:11:04;21.50;87.30
32366;DHT22;18837;46.832;16.838;2023-07-31T07:13:30;21.50;87.30
32366;DHT22;18837;46.832;16.838;2023-07-31T07:15:56;21.50;87.20
32366;DHT22;18837;46.832;16.838;2023-07-31T07:18:22;21.50;87.40
32366;DHT22;18837;46.832;16.838;2023-07-31T07:20:51;21.50;87.50
32366;DHT22;18837;46.832;16.838;2023-07-31T07:23:18;21.50;87.20
32366;DHT22;18837;46.832;16.838;2023-07-31T07:25:45;21.50;87.20
32366;DHT22;18837;46.832;16.838;2023-07-31T07:28:11;21.50;87.30
32366;DHT22;18837;46.832;16.838;2023-07-31T07:30:37;21.50;87.30
32366;DHT22;18837;46.832;16.838;2023-07-31T07:33:03;21.50;87.40
32366;DHT22;18837;46.832;16.838;2023-07-31T07:35:29;21.50;87.40
32366;DHT22;18837;46.832;16.838;2023-07-31T07:37:55;21.60;87.40
32366;DHT22;18837;46.832;16.838;2023-07-31T07:40:22;21.60;87.40
32366;DHT22;18837;46.832;16.838;2023-07-31T07:42:47;21.60;87.50
32366;DHT22;18837;46.832;16.838;2023-07-31T07:45:13;21.60;87.50
32366;DHT22;18837;46.832;16.838;2023-07-31T07:47:42;21.60;87.20
32366;DHT22;18837;46.832;16.838;2023-07-31T07:50:08;21.70;87.20
32366;DHT22;18837;46.832;16.838;2023-07-31T07:52:50;21.70;87.30
32366;DHT22;18837;46.832;16.838;2023-07-31T07:55:16;21.70;87.20
32366;DHT22;18837;46.832;16.838;2023-07-31T07:57:41;21.80;87.40
32366;DHT22;18837;46.832;16.838;2023-07-31T08:00:10;21.80;87.20
32366;DHT22;18837;46.832;16.838;2023-07-31T08:02:36;21.80;86.80
32366;DHT22;18837;46.832;16.838;2023-07-31T08:05:01;21.80;86.90
32366;DHT22;18837;46.832;16.838;2023-07-31T08:07:27;21.90;87.00
32366;DHT22;18837;46.832;16.838;2023-07-31T08:09:53;21.90;86.60
32366;DHT22;18837;46.832;16.838;2023-07-31T08:12:19;22.00;86.70
32366;DHT22;18837;46.832;16.838;2023-07-31T08:14:45;22.00;86.30
32366;DHT22;18837;46.832;16.838;2023-07-31T08:17:10;22.00;86.40
32366;DHT22;18837;46.832;16.838;2023-07-31T08:19:36;22.10;86.00
32366;DHT22;18837;46.832;16.838;2023-07-31T08:22:02;22.10;86.10
32366;DHT22;18837;46.832;16.838;2023-07-31T08:24:28;22.10;85.80
32366;DHT22;18837;46.832;16.838;2023-07-31T08:26:54;22.20;85.60
32366;DHT22;18837;46.832;16.838;2023-07-31T08:29:20;22.30;85.40
32366;DHT22;18837;46.832;16.838;2023-07-31T08:34:14;22.30;85.10
32366;DHT22;18837;46.832;16.838;2023-07-31T08:36:40;22.40;85.00
32366;DHT22;18837;46.832;16.838;2023-07-31T08:39:06;22.40;84.80
32366;DHT22;18837;46.832;16.838;2023-07-31T08:41:38;22.50;84.70
32366;DHT22;18837;46.832;16.838;2023-07-31T08:44:07;22.50;84.20
32366;DHT22;18837;46.832;16.838;2023-07-31T08:46:34;22.60;84.30
32366;DHT22;18837;46.832;16.838;2023-07-31T08:49:00;22.60;84.20
32366;DHT22;18837;46.832;16.838;2023-07-31T08:51:30;22.60;83.80
32366;DHT22;18837;46.832;16.838;2023-07-31T08:53:55;22.70;83.80
32366;DHT22;18837;46.832;16.838;2023-07-31T08:56:23;22.70;84.40
32366;DHT22;18837;46.832;16.838;2023-07-31T08:58:53;22.80;84.80
32366;DHT22;18837;46.832;16.838;2023-07-31T09:01:26;22.90;84.70
32366;DHT22;18837;46.832;16.838;2023-07-31T09:03:55;22.90;83.70
32366;DHT22;18837;46.832;16.838;2023-07-31T09:06:23;23.00;83.60
32366;DHT22;18837;46.832;16.838;2023-07-31T09:08:50;23.00;83.30
32366;DHT22;18837;46.832;16.838;2023-07-31T09:11:17;23.00;83.80
32366;DHT22;18837;46.832;16.838;2023-07-31T09:13:46;23.10;85.40
32366;DHT22;18837;46.832;16.838;2023-07-31T09:16:18;23.20;85.40
32366;DHT22;18837;46.832;16.838;2023-07-31T09:18:56;23.20;85.90
32366;DHT22;18837;46.832;16.838;2023-07-31T09:21:23;23.30;84.90
32366;DHT22;18837;46.832;16.838;2023-07-31T09:23:49;23.30;83.60
32366;DHT22;18837;46.832;16.838;2023-07-31T09:26:35;23.30;84.70
32366;DHT22;18837;46.832;16.838;2023-07-31T09:29:04;23.40;84.70
32366;DHT22;18837;46.832;16.838;2023-07-31T09:31:43;23.40;83.50
32366;DHT22;18837;46.832;16.838;2023-07-31T09:34:11;23.50;83.70
32366;DHT22;18837;46.832;16.838;2023-07-31T09:36:49;23.50;83.00
32366;DHT22;18837;46.832;16.838;2023-07-31T09:39:17;23.50;82.30
32366;DHT22;18837;46.832;16.838;2023-07-31T09:41:53;23.60;82.60
32366;DHT22;18837;46.832;16.838;2023-07-31T09:44:19;23.60;83.30
32366;DHT22;18837;46.832;16.838;2023-07-31T09:46:45;23.70;84.70
32366;DHT22;18837;46.832;16.838;2023-07-31T09:49:12;23.70;84.60
32366;DHT22;18837;46.832;16.838;2023-07-31T09:51:42;23.80;84.20
32366;DHT22;18837;46.832;16.838;2023-07-31T09:54:17;23.80;83.80
32366;DHT22;18837;46.832;16.838;2023-07-31T09:56:44;23.90;83.70
32366;DHT22;18837;46.832;16.838;2023-07-31T09:59:16;23.90;84.00
32366;DHT22;18837;46.832;16.838;2023-07-31T10:01:43;24.00;84.60
32366;DHT22;18837;46.832;16.838;2023-07-31T10:04:10;24.00;85.60
32366;DHT22;18837;46.832;16.838;2023-07-31T10:06:40;24.10;84.70
32366;DHT22;18837;46.832;16.838;2023-07-31T10:09:11;24.10;83.00
32366;DHT22;18837;46.832;16.838;2023-07-31T10:11:47;24.10;81.80
32366;DHT22;18837;46.832;16.838;2023-07-31T10:14:20;24.20;81.30
32366;DHT22;18837;46.832;16.838;2023-07-31T10:16:47;24.20;81.40
32366;DHT22;18837;46.832;16.838;2023-07-31T10:19:14;24.20;81.70
32366;DHT22;18837;46.832;16.838;2023-07-31T10:21:40;24.30;82.80
32366;DHT22;18837;46.832;16.838;2023-07-31T10:24:08;24.30;84.40
32366;DHT22;18837;46.832;16.838;2023-07-31T10:26:35;24.40;86.20
32366;DHT22;18837;46.832;16.838;2023-07-31T10:29:04;24.40;85.30
32366;DHT22;18837;46.832;16.838;2023-07-31T10:31:31;24.50;86.70
32366;DHT22;18837;46.832;16.838;2023-07-31T10:33:58;24.50;84.70
32366;DHT22;18837;46.832;16.838;2023-07-31T10:36:28;24.50;83.10
32366;DHT22;18837;46.832;16.838;2023-07-31T10:38:56;24.60;83.50
32366;DHT22;18837;46.832;16.838;2023-07-31T10:41:36;24.60;83.70
32366;DHT22;18837;46.832;16.838;2023-07-31T10:44:08;24.70;86.10
32366;DHT22;18837;46.832;16.838;2023-07-31T10:46:36;24.70;88.20
32366;DHT22;18837;46.832;16.838;2023-07-31T10:49:02;24.80;88.80
32366;DHT22;18837;46.832;16.838;2023-07-31T10:51:35;24.80;84.10
32366;DHT22;18837;46.832;16.838;2023-07-31T10:54:12;24.80;85.30
32366;DHT22;18837;46.832;16.838;2023-07-31T10:56:39;24.90;87.10
32366;DHT22;18837;46.832;16.838;2023-07-31T11:42:22;25.50;84.60
32366;DHT22;18837;46.832;16.838;2023-07-31T11:44:48;25.50;86.30
32366;DHT22;18837;46.832;16.838;2023-07-31T11:47:15;25.50;83.90
32366;DHT22;18837;46.832;16.838;2023-07-31T11:49:55;25.60;87.00
32366;DHT22;18837;46.832;16.838;2023-07-31T11:52:28;25.60;86.30
32366;DHT22;18837;46.832;16.838;2023-07-31T11:54:57;25.60;82.30
32366;DHT22;18837;46.832;16.838;2023-07-31T11:57:25;25.50;85.30
32366;DHT22;18837;46.832;16.838;2023-07-31T11:59:52;25.60;90.00
32366;DHT22;18837;46.832;16.838;2023-07-31T12:02:18;25.60;89.40
32366;DHT22;18837;46.832;16.838;2023-07-31T12:05:21;25.70;89.00
32366;DHT22;18837;46.832;16.838;2023-07-31T12:07:53;25.70;87.40
32366;DHT22;18837;46.832;16.838;2023-07-31T12:10:25;25.70;86.80
32366;DHT22;18837;46.832;16.838;2023-07-31T12:13:02;25.70;83.70
32366;DHT22;18837;46.832;16.838;2023-07-31T12:15:39;25.70;82.90
32366;DHT22;18837;46.832;16.838;2023-07-31T12:18:13;25.80;81.50
32366;DHT22;18837;46.832;16.838;2023-07-31T12:23:22;25.80;79.10
32366;DHT22;18837;46.832;16.838;2023-07-31T12:26:18;25.80;78.80
32366;DHT22;18837;46.832;16.838;2023-07-31T12:28:49;25.80;85.00
32366;DHT22;18837;46.832;16.838;2023-07-31T12:31:19;25.90;84.00
32366;DHT22;18837;46.832;16.838;2023-07-31T12:33:48;25.90;81.40
32366;DHT22;18837;46.832;16.838;2023-07-31T12:36:17;25.90;80.10
32366;DHT22;18837;46.832;16.838;2023-07-31T12:38:43;25.90;80.60
32366;DHT22;18837;46.832;16.838;2023-07-31T12:41:09;25.90;79.40
32366;DHT22;18837;46.832;16.838;2023-07-31T12:43:38;26.00;86.60
32366;DHT22;18837;46.832;16.838;2023-07-31T12:46:05;26.00;86.10
32366;DHT22;18837;46.832;16.838;2023-07-31T12:48:32;26.10;87.70
32366;DHT22;18837;46.832;16.838;2023-07-31T12:50:57;26.10;82.20
32366;DHT22;18837;46.832;16.838;2023-07-31T12:53:23;26.10;80.70
32366;DHT22;18837;46.832;16.838;2023-07-31T12:55:49;26.00;81.50
32366;DHT22;18837;46.832;16.838;2023-07-31T12:58:15;26.00;80.60
32366;DHT22;18837;46.832;16.838;2023-07-31T13:01:00;26.10;84.70
32366;DHT22;18837;46.832;16.838;2023-07-31T13:03:39;26.10;83.80
32366;DHT22;18837;46.832;16.838;2023-07-31T13:06:05;26.10;82.70
32366;DHT22;18837;46.832;16.838;2023-07-31T13:08:31;26.10;82.40
32366;DHT22;18837;46.832;16.838;2023-07-31T13:10:57;26.10;79.40
32366;DHT22;18837;46.832;16.838;2023-07-31T13:13:22;26.10;83.20
32366;DHT22;18837;46.832;16.838;2023-07-31T13:15:48;26.10;85.80
32366;DHT22;18837;46.832;16.838;2023-07-31T13:18:20;26.10;84.10
32366;DHT22;18837;46.832;16.838;2023-07-31T13:20:45;26.10;83.50
32366;DHT22;18837;46.832;16.838;2023-07-31T13:23:11;26.10;84.30
32366;DHT22;18837;46.832;16.838;2023-07-31T13:25:37;26.10;84.10
32366;DHT22;18837;46.832;16.838;2023-07-31T13:28:03;26.10;84.40
32366;DHT22;18837;46.832;16.838;2023-07-31T13:30:29;26.10;85.30
32366;DHT22;18837;46.832;16.838;2023-07-31T13:32:54;26.20;85.10
32366;DHT22;18837;46.832;16.838;2023-07-31T13:35:20;26.20;82.50
32366;DHT22;18837;46.832;16.838;2023-07-31T13:37:46;26.20;81.50
32366;DHT22;18837;46.832;16.838;2023-07-31T13:40:12;26.20;81.80
32366;DHT22;18837;46.832;16.838;2023-07-31T13:42:38;26.20;82.20
32366;DHT22;18837;46.832;16.838;2023-07-31T13:45:05;26.30;82.70
32366;DHT22;18837;46.832;16.838;2023-07-31T13:47:30;26.30;81.50
32366;DHT22;18837;46.832;16.838;2023-07-31T13:49:57;26.30;80.90
32366;DHT22;18837;46.832;16.838;2023-07-31T13:52:23;26.30;81.20
32366;DHT22;18837;46.832;16.838;2023-07-31T13:54:58;26.40;81.00
32366;DHT22;18837;46.832;16.838;2023-07-31T13:57:24;26.40;80.30
32366;DHT22;18837;46.832;16.838;2023-07-31T13:59:50;26.50;79.10
32366;DHT22;18837;46.832;16.838;2023-07-31T14:02:16;26.50;79.90
32366;DHT22;18837;46.832;16.838;2023-07-31T14:04:41;26.50;80.50
32366;DHT22;18837;46.832;16.838;2023-07-31T14:07:07;26.50;78.60
32366;DHT22;18837;46.832;16.838;2023-07-31T14:09:45;26.50;79.10
32366;DHT22;18837;46.832;16.838;2023-07-31T14:12:12;26.50;79.90
32366;DHT22;18837;46.832;16.838;2023-07-31T14:14:38;26.40;79.90
32366;DHT22;18837;46.832;16.838;2023-07-31T14:17:04;26.40;79.60
32366;DHT22;18837;46.832;16.838;2023-07-31T14:19:30;26.30;79.80
32366;DHT22;18837;46.832;16.838;2023-07-31T14:21:58;26.30;79.30
32366;DHT22;18837;46.832;16.838;2023-07-31T14:24:24;26.20;78.90
32366;DHT22;18837;46.832;16.838;2023-07-31T14:26:50;26.20;79.10
32366;DHT22;18837;46.832;16.838;2023-07-31T14:29:16;26.20;78.80
32366;DHT22;18837;46.832;16.838;2023-07-31T14:31:41;26.10;79.00
32366;DHT22;18837;46.832;16.838;2023-07-31T14:34:08;26.10;79.20
32366;DHT22;18837;46.832;16.838;2023-07-31T14:36:33;26.10;79.70
32366;DHT22;18837;46.832;16.838;2023-07-31T14:38:59;26.10;80.00
32366;DHT22;18837;46.832;16.838;2023-07-31T14:41:25;26.10;80.20
32366;DHT22;18837;46.832;16.838;2023-07-31T14:44:22;26.10;80.00
32366;DHT22;18837;46.832;16.838;2023-07-31T14:47:00;26.10;80.00
32366;DHT22;18837;46.832;16.838;2023-07-31T14:49:26;26.10;79.40
32366;DHT22;18837;46.832;16.838;2023-07-31T14:51:55;26.00;79.30
32366;DHT22;18837;46.832;16.838;2023-07-31T14:54:21;26.00;79.30
32366;DHT22;18837;46.832;16.838;2023-07-31T14:56:47;26.10;79.30
32366;DHT22;18837;46.832;16.838;2023-07-31T14:59:12;26.10;79.60
32366;DHT22;18837;46.832;16.838;2023-07-31T15:01:47;26.10;79.70
32366;DHT22;18837;46.832;16.838;2023-07-31T15:04:13;26.30;79.80
32366;DHT22;18837;46.832;16.838;2023-07-31T15:06:39;26.30;79.80
32366;DHT22;18837;46.832;16.838;2023-07-31T15:09:05;26.40;79.70
32366;DHT22;18837;46.832;16.838;2023-07-31T15:11:30;26.50;79.40
32366;DHT22;18837;46.832;16.838;2023-07-31T15:13:56;26.50;79.70
32366;DHT22;18837;46.832;16.838;2023-07-31T15:16:22;26.60;80.30
32366;DHT22;18837;46.832;16.838;2023-07-31T15:18:53;26.70;80.10
32366;DHT22;18837;46.832;16.838;2023-07-31T15:21:19;26.70;80.10
32366;DHT22;18837;46.832;16.838;2023-07-31T15:23:45;26.70;79.10
32366;DHT22;18837;46.832;16.838;2023-07-31T15:26:11;26.80;78.70
32366;DHT22;18837;46.832;16.838;2023-07-31T15:28:37;26.80;78.50
32366;DHT22;18837;46.832;16.838;2023-07-31T15:31:04;26.90;78.40
32366;DHT22;18837;46.832;16.838;2023-07-31T15:33:30;26.90;78.30
32366;DHT22;18837;46.832;16.838;2023-07-31T15:35:55;26.90;78.00
32366;DHT22;18837;46.832;16.838;2023-07-31T15:38:28;26.90;78.10
32366;DHT22;18837;46.832;16.838;2023-07-31T15:40:54;26.90;78.60
32366;DHT22;18837;46.832;16.838;2023-07-31T15:43:19;26.90;78.50
32366;DHT22;18837;46.832;16.838;2023-07-31T15:45:45;26.90;78.90
32366;DHT22;18837;46.832;16.838;2023-07-31T15:48:11;26.80;79.00
32366;DHT22;18837;46.832;16.838;2023-07-31T15:50:37;26.80;78.60
32366;DHT22;18837;46.832;16.838;2023-07-31T15:53:21;26.80;78.20
32366;DHT22;18837;46.832;16.838;2023-07-31T15:55:56;26.70;78.10
32366;DHT22;18837;46.832;16.838;2023-07-31T15:58:22;26.70;78.30
32366;DHT22;18837;46.832;16.838;2023-07-31T16:00:48;26.70;78.20
32366;DHT22;18837;46.832;16.838;2023-07-31T16:03:14;26.60;78.40
32366;DHT22;18837;46.832;16.838;2023-07-31T16:05:40;26.60;78.40
32366;DHT22;18837;46.832;16.838;2023-07-31T16:08:07;26.60;78.40
32366;DHT22;18837;46.832;16.838;2023-07-31T16:10:33;26.60;78.10
32366;DHT22;18837;46.832;16.838;2023-07-31T16:13:00;26.50;78.30